createdAt,value
2017-03-27T00:00:19.472Z,68.56
2017-03-27T00:00:45.599Z,68.84
2017-03-27T00:01:11.679Z,68.56
2017-03-27T00:01:37.781Z,68.56
2017-03-27T00:02:03.885Z,68.56
2017-03-27T00:02:29.988Z,68.46
2017-03-27T00:02:56.115Z,68.46
2017-03-27T00:03:22.265Z,68.65
2017-03-27T00:03:48.394Z,68.75
2017-03-27T00:04:14.546Z,68.56
2017-03-27T00:04:40.648Z,68.46
2017-03-27T00:05:06.747Z,68.56
2017-03-27T00:05:32.828Z,68.27
2017-03-27T00:05:58.933Z,68.46
2017-03-27T00:06:25.037Z,68.46
2017-03-27T00:06:51.139Z,68.75
2017-03-27T00:07:17.267Z,68.65
2017-03-27T00:07:43.368Z,68.56
2017-03-27T00:08:09.470Z,68.37
2017-03-27T00:08:35.616Z,68.46
2017-03-27T00:09:01.744Z,68.65
2017-03-27T00:09:27.892Z,68.56
2017-03-27T00:09:53.973Z,68.75
2017-03-27T00:10:20.076Z,68.65
2017-03-27T00:10:46.203Z,68.56
2017-03-27T00:11:12.307Z,68.46
2017-03-27T00:11:38.413Z,68.65
2017-03-27T00:12:04.516Z,68.56
2017-03-27T00:12:30.644Z,68.75
2017-03-27T00:12:56.754Z,68.56
2017-03-27T00:13:22.881Z,68.46
2017-03-27T00:13:49.029Z,68.65
2017-03-27T00:14:15.131Z,68.27
2017-03-27T00:14:41.234Z,67.89
2017-03-27T00:15:07.357Z,68.08
2017-03-27T00:15:33.462Z,68.08
2017-03-27T00:16:02.620Z,67.89
2017-03-27T00:16:28.700Z,67.7
2017-03-27T00:16:55.321Z,67.8
2017-03-27T00:18:13.408Z,67.13
2017-03-27T00:18:39.560Z,67.22
2017-03-27T00:19:05.661Z,67.22
2017-03-27T00:19:31.813Z,67.13
2017-03-27T00:19:57.898Z,67.13
2017-03-27T00:20:24.165Z,67.7
2017-03-27T00:20:50.271Z,67.61
2017-03-27T00:21:16.347Z,67.51
2017-03-27T00:21:42.453Z,67.89
2017-03-27T00:22:08.576Z,67.8
2017-03-27T00:22:34.705Z,68.08
2017-03-27T00:23:00.832Z,67.89
2017-03-27T00:23:26.938Z,68.18
2017-03-27T00:23:53.087Z,67.8
2017-03-27T00:24:19.217Z,67.7
2017-03-27T00:24:45.366Z,68.08
2017-03-27T00:25:11.514Z,67.89
2017-03-27T00:25:37.618Z,68.65
2017-03-27T00:26:03.699Z,68.94
2017-03-27T00:26:29.851Z,68.65
2017-03-27T00:26:55.947Z,68.75
2017-03-27T00:27:22.052Z,68.46
2017-03-27T00:27:48.157Z,68.65
2017-03-27T00:28:14.285Z,68.56
2017-03-27T00:28:40.439Z,68.75
2017-03-27T00:29:06.543Z,68.65
2017-03-27T00:29:32.695Z,68.65
2017-03-27T00:29:58.822Z,68.65
2017-03-27T00:30:24.923Z,68.56
2017-03-27T00:30:51.004Z,68.27
2017-03-27T00:31:17.087Z,68.52
2017-03-27T00:31:43.214Z,68.52
2017-03-27T00:32:09.295Z,68.43
2017-03-27T00:32:35.374Z,68.62
2017-03-27T00:33:01.523Z,69
2017-03-27T00:33:27.651Z,69.1
2017-03-27T00:33:53.732Z,69.29
2017-03-27T00:34:19.904Z,68.52
2017-03-27T00:34:46.062Z,68.62
2017-03-27T00:35:12.163Z,68.9
2017-03-27T00:35:38.290Z,69.48
2017-03-27T00:36:04.371Z,69.38
2017-03-27T00:36:30.493Z,69.19
2017-03-27T00:36:56.619Z,69.19
2017-03-27T00:37:22.768Z,69.1
2017-03-27T00:37:48.895Z,69.38
2017-03-27T00:38:15.068Z,69.19
2017-03-27T00:38:41.196Z,69.38
2017-03-27T00:39:07.319Z,69.19
2017-03-27T00:39:33.443Z,69.76
2017-03-27T00:39:59.549Z,69.29
2017-03-27T00:40:25.648Z,69.19
2017-03-27T00:40:51.754Z,69.29
2017-03-27T00:41:17.836Z,69.29
2017-03-27T00:41:43.984Z,69.19
2017-03-27T00:42:10.086Z,69.1
2017-03-27T00:42:36.189Z,69
2017-03-27T00:43:02.319Z,68.71
2017-03-27T00:43:28.491Z,69
2017-03-27T00:43:54.643Z,69
2017-03-27T00:44:20.773Z,68.71
2017-03-27T00:44:46.903Z,69
2017-03-27T00:47:21.110Z,68.43
2017-03-27T00:47:47.240Z,68.62
2017-03-27T00:48:13.390Z,68.52
2017-03-27T00:48:39.540Z,68.65
2017-03-27T00:49:05.667Z,68.65
2017-03-27T00:49:31.795Z,68.65
2017-03-27T00:49:57.901Z,68.37
2017-03-27T00:50:24.003Z,67.89
2017-03-27T00:50:50.107Z,67.8
2017-03-27T00:51:16.187Z,68.15
2017-03-27T00:51:42.295Z,68.08
2017-03-27T00:52:08.377Z,68.18
2017-03-27T00:52:34.456Z,68.08
2017-03-27T00:53:00.582Z,67.99
2017-03-27T00:53:26.712Z,68.05
2017-03-27T00:53:52.863Z,68.27
2017-03-27T00:54:18.986Z,68.56
2017-03-27T00:54:45.090Z,68.84
2017-03-27T00:55:11.242Z,68.46
2017-03-27T00:55:37.366Z,68.65
2017-03-27T00:56:03.446Z,68.08
2017-03-27T00:56:29.571Z,67.99
2017-03-27T00:56:55.700Z,68.46
2017-03-27T00:57:21.805Z,67.61
2017-03-27T00:57:47.934Z,67.41
2017-03-27T00:58:14.062Z,67.03
2017-03-27T00:58:40.193Z,67.32
2017-03-27T00:59:06.346Z,67.41
2017-03-27T00:59:32.475Z,67.22
2017-03-27T00:59:58.605Z,67.32
2017-03-27T01:00:24.709Z,67.13
2017-03-27T01:00:50.843Z,67.32
2017-03-27T01:01:16.922Z,66.94
2017-03-27T01:01:43.002Z,66.46
2017-03-27T01:02:09.104Z,65.8
2017-03-27T01:02:35.255Z,66.18
2017-03-27T01:03:01.405Z,66.27
2017-03-27T01:03:27.554Z,66.27
2017-03-27T01:03:53.708Z,66.37
2017-03-27T01:04:19.831Z,66.66
2017-03-27T01:04:45.959Z,66.46
2017-03-27T01:05:12.064Z,66.56
2017-03-27T01:05:38.143Z,66.66
2017-03-27T01:06:04.269Z,67.22
2017-03-27T01:06:30.348Z,67.13
2017-03-27T01:06:56.430Z,66.85
2017-03-27T01:07:22.559Z,67.41
2017-03-27T01:07:48.662Z,66.94
2017-03-27T01:08:14.767Z,66.94
2017-03-27T01:08:40.939Z,67.13
2017-03-27T01:09:07.091Z,67.13
2017-03-27T01:09:33.214Z,67.29
2017-03-27T01:09:59.339Z,67.1
2017-03-27T01:10:25.466Z,67.13
2017-03-27T01:10:51.570Z,67.32
2017-03-27T01:11:17.672Z,67.38
2017-03-27T01:11:43.798Z,67.38
2017-03-27T01:12:09.877Z,67.29
2017-03-27T01:12:36.050Z,67.38
2017-03-27T01:13:02.178Z,67.19
2017-03-27T01:13:28.304Z,67.47
2017-03-27T01:13:54.475Z,67.47
2017-03-27T01:14:20.579Z,67.86
2017-03-27T01:14:46.886Z,68.05
2017-03-27T01:15:13.810Z,68.15
2017-03-27T01:15:39.892Z,67.86
2017-03-27T01:17:16.797Z,68.24
2017-03-27T01:17:42.972Z,67.95
2017-03-27T01:18:09.119Z,67.95
2017-03-27T01:18:45.512Z,68.71
2017-03-27T01:19:11.590Z,68.81
2017-03-27T01:19:37.715Z,68.81
2017-03-27T01:20:03.816Z,68.81
2017-03-27T01:20:29.966Z,68.81
2017-03-27T01:20:56.091Z,68.62
2017-03-27T01:21:22.169Z,68.71
2017-03-27T01:21:48.248Z,68.52
2017-03-27T01:22:14.352Z,68.71
2017-03-27T01:22:40.480Z,68.71
2017-03-27T01:23:06.581Z,68.9
2017-03-27T01:23:32.692Z,68.43
2017-03-27T01:23:58.807Z,68.52
2017-03-27T01:24:24.934Z,68.71
2017-03-27T01:24:51.062Z,68.62
2017-03-27T01:25:17.163Z,68.43
2017-03-27T01:25:43.267Z,68.71
2017-03-27T01:26:09.389Z,68.52
2017-03-27T01:26:35.495Z,68.81
2017-03-27T01:27:01.596Z,68.52
2017-03-27T01:27:27.697Z,68.62
2017-03-27T01:27:53.801Z,68.52
2017-03-27T01:28:19.947Z,68.62
2017-03-27T01:28:46.117Z,68.43
2017-03-27T01:29:12.288Z,68.71
2017-03-27T01:29:38.417Z,68.71
2017-03-27T01:30:04.496Z,68.71
2017-03-27T01:30:30.597Z,68.62
2017-03-27T01:30:56.698Z,68.62
2017-03-27T01:31:22.779Z,68.43
2017-03-27T01:31:48.856Z,68.62
2017-03-27T01:32:14.938Z,68.71
2017-03-27T01:32:41.016Z,68.52
2017-03-27T01:33:07.115Z,68.05
2017-03-27T01:33:33.266Z,67.86
2017-03-27T01:33:59.399Z,68.05
2017-03-27T01:34:25.534Z,67.76
2017-03-27T01:34:51.614Z,67.86
2017-03-27T01:35:17.737Z,68.15
2017-03-27T01:35:43.842Z,68.62
2017-03-27T01:36:09.919Z,68.62
2017-03-27T01:36:36.000Z,68.81
2017-03-27T01:37:02.128Z,68.05
2017-03-27T01:37:28.230Z,68.05
2017-03-27T01:37:54.354Z,68.05
2017-03-27T01:38:20.523Z,68.81
2017-03-27T01:38:46.625Z,68.71
2017-03-27T01:39:12.771Z,68.62
2017-03-27T01:39:38.919Z,68.9
2017-03-27T01:40:05.026Z,68.15
2017-03-27T01:40:31.129Z,67.95
2017-03-27T01:40:57.232Z,68.24
2017-03-27T01:41:23.358Z,67.86
2017-03-27T01:41:49.439Z,68.24
2017-03-27T01:42:15.541Z,68.24
2017-03-27T01:42:41.645Z,68.15
2017-03-27T01:43:07.747Z,67.86
2017-03-27T01:43:33.891Z,68.15
2017-03-27T01:43:59.972Z,67.76
2017-03-27T01:44:26.101Z,68.05
2017-03-27T01:44:52.244Z,67.86
2017-03-27T01:45:18.324Z,67.86
2017-03-27T01:45:44.403Z,67.57
2017-03-27T01:46:10.528Z,67.47
2017-03-27T01:46:36.632Z,68.15
2017-03-27T01:47:02.753Z,67.95
2017-03-27T01:47:28.832Z,67.76
2017-03-27T01:47:54.985Z,68.05
2017-03-27T01:48:21.090Z,68.3
2017-03-27T01:48:47.218Z,68.24
2017-03-27T01:49:13.364Z,67.92
2017-03-27T01:49:39.490Z,68.01
2017-03-27T01:50:05.592Z,68.11
2017-03-27T01:50:31.721Z,67.82
2017-03-27T01:50:57.797Z,68.3
2017-03-27T01:51:23.877Z,67.92
2017-03-27T01:51:49.958Z,68.3
2017-03-27T01:52:16.039Z,68.21
2017-03-27T01:52:42.143Z,68.68
2017-03-27T01:53:08.290Z,68.59
2017-03-27T01:53:34.417Z,68.68
2017-03-27T01:54:00.543Z,68.49
2017-03-27T01:54:26.711Z,68.4
2017-03-27T01:54:52.834Z,68.59
2017-03-27T01:55:18.912Z,68.59
2017-03-27T01:55:44.990Z,68.21
2017-03-27T01:56:11.091Z,68.3
2017-03-27T01:56:37.172Z,68.59
2017-03-27T01:57:03.322Z,68.59
2017-03-27T01:57:29.446Z,68.68
2017-03-27T01:57:55.597Z,68.49
2017-03-27T01:58:21.700Z,68.4
2017-03-27T01:58:47.870Z,68.4
2017-03-27T01:59:13.993Z,68.4
2017-03-27T01:59:40.095Z,68.3
2017-03-27T02:00:06.220Z,68.49
2017-03-27T02:00:32.299Z,68.49
2017-03-27T02:00:58.423Z,68.77
2017-03-27T02:01:24.523Z,68.77
2017-03-27T02:01:50.645Z,68.49
2017-03-27T02:02:16.745Z,68.49
2017-03-27T02:02:42.848Z,68.87
2017-03-27T02:03:08.928Z,68.49
2017-03-27T02:03:35.052Z,68.4
2017-03-27T02:04:01.175Z,68.77
2017-03-27T02:04:27.281Z,68.59
2017-03-27T02:04:53.408Z,68.59
2017-03-27T02:05:19.534Z,68.4
2017-03-27T02:05:45.684Z,68.01
2017-03-27T02:06:11.809Z,67.73
2017-03-27T02:06:37.888Z,68.01
2017-03-27T02:07:03.993Z,67.63
2017-03-27T02:07:30.138Z,67.92
2017-03-27T02:07:56.265Z,67.92
2017-03-27T02:08:22.392Z,67.92
2017-03-27T02:08:48.521Z,68.01
2017-03-27T02:09:14.625Z,67.92
2017-03-27T02:09:40.730Z,68.11
2017-03-27T02:10:06.855Z,68.11
2017-03-27T02:10:32.977Z,67.82
2017-03-27T02:10:59.055Z,68.01
2017-03-27T02:11:25.135Z,68.11
2017-03-27T02:11:51.259Z,68.11
2017-03-27T02:12:17.387Z,68.3
2017-03-27T02:12:43.512Z,68.11
2017-03-27T02:13:09.690Z,68.59
2017-03-27T02:13:35.814Z,68.77
2017-03-27T02:14:01.940Z,68.4
2017-03-27T02:14:28.089Z,68.68
2017-03-27T02:14:54.213Z,68.21
2017-03-27T02:15:20.312Z,68.21
2017-03-27T02:15:46.394Z,68.68
2017-03-27T02:16:12.470Z,68.59
2017-03-27T02:16:38.573Z,68.4
2017-03-27T02:17:04.653Z,68.4
2017-03-27T02:17:30.754Z,68.96
2017-03-27T02:17:57.179Z,68.49
2017-03-27T02:18:23.300Z,68.59
2017-03-27T02:18:49.475Z,68.59
2017-03-27T02:19:15.619Z,68.68
2017-03-27T02:19:41.722Z,68.21
2017-03-27T02:20:07.850Z,67.92
2017-03-27T02:20:33.927Z,68.21
2017-03-27T02:21:00.029Z,68.11
2017-03-27T02:21:26.106Z,68.3
2017-03-27T02:21:52.209Z,68.21
2017-03-27T02:22:18.289Z,68.11
2017-03-27T02:22:44.414Z,68.4
2017-03-27T02:23:10.516Z,67.82
2017-03-27T02:23:36.664Z,67.82
2017-03-27T02:24:02.764Z,67.92
2017-03-27T02:24:28.871Z,67.92
2017-03-27T02:24:54.971Z,67.92
2017-03-27T02:25:21.097Z,68.01
2017-03-27T02:25:47.198Z,67.92
2017-03-27T02:26:13.298Z,67.92
2017-03-27T02:26:39.400Z,68.4
2017-03-27T02:27:05.479Z,68.11
2017-03-27T02:27:31.581Z,67.82
2017-03-27T02:27:57.706Z,67.82
2017-03-27T02:28:23.811Z,67.92
2017-03-27T02:28:49.980Z,67.82
2017-03-27T02:29:16.124Z,67.92
2017-03-27T02:29:42.251Z,67.82
2017-03-27T02:30:08.356Z,67.92
2017-03-27T02:30:35.850Z,68.01
2017-03-27T02:31:01.931Z,67.82
2017-03-27T02:31:28.010Z,68.21
2017-03-27T02:31:54.111Z,68.59
2017-03-27T02:32:20.236Z,68.59
2017-03-27T02:32:46.338Z,68.21
2017-03-27T02:33:12.660Z,67.82
2017-03-27T02:33:38.783Z,68.21
2017-03-27T02:34:04.885Z,68.77
2017-03-27T02:34:30.988Z,68.4
2017-03-27T02:34:57.067Z,67.73
2017-03-27T02:35:23.173Z,68.11
2017-03-27T02:35:49.272Z,67.82
2017-03-27T02:36:15.350Z,67.92
2017-03-27T02:36:41.451Z,68.68
2017-03-27T02:37:07.552Z,68.59
2017-03-27T02:37:33.631Z,68.59
2017-03-27T02:37:59.781Z,68.4
2017-03-27T02:38:25.904Z,68.4
2017-03-27T02:38:52.028Z,67.92
2017-03-27T02:39:18.155Z,67.92
2017-03-27T02:39:44.506Z,68.01
2017-03-27T02:40:10.623Z,68.01
2017-03-27T02:40:36.724Z,67.82
2017-03-27T02:41:02.804Z,67.92
2017-03-27T02:41:28.909Z,67.35
2017-03-27T02:41:55.056Z,67.38
2017-03-27T02:42:21.159Z,66.49
2017-03-27T02:42:47.283Z,66.2
2017-03-27T02:43:13.427Z,67.25
2017-03-27T02:43:39.554Z,67.16
2017-03-27T02:44:05.656Z,67.07
2017-03-27T02:44:31.808Z,66.97
2017-03-27T02:44:57.934Z,67.07
2017-03-27T02:45:24.034Z,67.35
2017-03-27T02:45:50.114Z,67.35
2017-03-27T02:46:16.192Z,67.25
2017-03-27T02:46:42.271Z,67.07
2017-03-27T02:47:08.395Z,67.07
2017-03-27T02:47:34.546Z,67.16
2017-03-27T02:48:00.668Z,67.07
2017-03-27T02:48:26.793Z,67.25
2017-03-27T02:48:52.943Z,67.63
2017-03-27T02:49:19.067Z,67.63
2017-03-27T02:49:45.145Z,67.54
2017-03-27T02:50:11.226Z,67.63
2017-03-27T02:50:37.328Z,67.73
2017-03-27T02:51:03.405Z,67.92
2017-03-27T02:51:29.530Z,68.21
2017-03-27T02:51:55.633Z,68.11
2017-03-27T02:52:21.736Z,67.82
2017-03-27T02:52:47.837Z,67.79
2017-03-27T02:53:13.960Z,67.92
2017-03-27T02:53:40.131Z,67.92
2017-03-27T02:55:24.084Z,68.01
2017-03-27T02:55:50.186Z,68.01
2017-03-27T02:56:16.265Z,68.77
2017-03-27T02:56:42.366Z,68.68
2017-03-27T02:57:08.490Z,68.87
2017-03-27T02:57:34.591Z,68.4
2017-03-27T02:58:00.713Z,68.87
2017-03-27T02:58:27.342Z,67.92
2017-03-27T02:58:53.489Z,67.82
2017-03-27T02:59:19.638Z,68.11
2017-03-27T02:59:45.717Z,68.01
2017-03-27T03:00:11.842Z,67.44
2017-03-27T03:00:37.969Z,66.87
2017-03-27T03:01:04.072Z,66.87
2017-03-27T03:01:30.220Z,67.16
2017-03-27T03:01:56.299Z,67.16
2017-03-27T03:02:22.404Z,66.87
2017-03-27T03:02:48.529Z,67.07
2017-03-27T03:03:14.631Z,67.07
2017-03-27T03:03:40.777Z,67.07
2017-03-27T03:04:06.899Z,67.16
2017-03-27T03:04:33.044Z,67.07
2017-03-27T03:04:59.124Z,67.25
2017-03-27T03:05:25.274Z,67.16
2017-03-27T03:05:51.371Z,67.44
2017-03-27T03:06:17.452Z,67.82
2017-03-27T03:06:43.555Z,67.82
2017-03-27T03:07:09.631Z,67.82
2017-03-27T03:07:35.759Z,67.73
2017-03-27T03:08:01.908Z,67.82
2017-03-27T03:08:28.061Z,67.44
2017-03-27T03:08:54.181Z,67.07
2017-03-27T03:09:20.351Z,67.44
2017-03-27T03:09:46.474Z,67.07
2017-03-27T03:10:12.576Z,67.25
2017-03-27T03:10:38.659Z,66.68
2017-03-27T03:11:04.760Z,67.25
2017-03-27T03:11:30.838Z,67.07
2017-03-27T03:11:56.918Z,67.16
2017-03-27T03:12:23.069Z,67.07
2017-03-27T03:12:49.195Z,66.97
2017-03-27T03:13:15.367Z,67.16
2017-03-27T03:13:41.514Z,67.07
2017-03-27T03:14:07.645Z,66.97
2017-03-27T03:14:33.762Z,67.07
2017-03-27T03:14:59.887Z,67.07
2017-03-27T03:15:26.036Z,67.35
2017-03-27T03:15:52.114Z,66.59
2017-03-27T03:16:18.232Z,67.25
2017-03-27T03:16:44.357Z,66.97
2017-03-27T03:17:10.437Z,67.16
2017-03-27T03:17:36.564Z,66.59
2017-03-27T03:18:02.707Z,66.59
2017-03-27T03:18:28.810Z,66.3
2017-03-27T03:18:54.885Z,65.73
2017-03-27T03:19:21.033Z,66.02
2017-03-27T03:19:47.156Z,66.59
2017-03-27T03:20:13.279Z,66.59
2017-03-27T03:20:39.358Z,66.59
2017-03-27T03:21:05.435Z,66.55
2017-03-27T03:21:31.514Z,67.03
2017-03-27T03:21:57.618Z,66.94
2017-03-27T03:22:23.695Z,67.13
2017-03-27T03:22:49.821Z,67.03
2017-03-27T03:23:15.970Z,67.03
2017-03-27T03:23:42.118Z,67.13
2017-03-27T03:24:08.264Z,67.22
2017-03-27T03:24:34.365Z,67.32
2017-03-27T03:25:00.467Z,67.13
2017-03-27T03:25:26.572Z,67.79
2017-03-27T03:25:52.649Z,67.41
2017-03-27T03:26:18.729Z,67.41
2017-03-27T03:26:44.852Z,67.79
2017-03-27T03:27:10.932Z,67.79
2017-03-27T03:27:37.054Z,67.5
2017-03-27T03:28:04.641Z,67.13
2017-03-27T03:28:30.788Z,67.69
2017-03-27T03:28:56.956Z,67.88
2017-03-27T03:29:23.111Z,67.79
2017-03-27T03:29:49.209Z,67.88
2017-03-27T03:30:15.336Z,67.98
2017-03-27T03:30:41.436Z,67.88
2017-03-27T03:31:07.513Z,67.88
2017-03-27T03:31:33.595Z,68.07
2017-03-27T03:31:59.695Z,67.69
2017-03-27T03:32:25.819Z,67.79
2017-03-27T03:32:51.921Z,68.07
2017-03-27T03:33:18.070Z,68.17
2017-03-27T03:33:44.220Z,68.07
2017-03-27T03:34:10.366Z,68.65
2017-03-27T03:34:36.534Z,68.36
2017-03-27T03:35:02.657Z,68.55
2017-03-27T03:35:28.779Z,68.65
2017-03-27T03:35:54.856Z,68.46
2017-03-27T03:36:20.957Z,68.46
2017-03-27T03:36:47.038Z,68.55
2017-03-27T03:37:13.117Z,68.74
2017-03-27T03:37:39.239Z,68.55
2017-03-27T03:38:05.517Z,68.55
2017-03-27T03:38:31.644Z,68.55
2017-03-27T03:38:57.746Z,68.61
2017-03-27T03:39:23.896Z,68.84
2017-03-27T03:39:49.995Z,69.09
2017-03-27T03:40:16.141Z,68.9
2017-03-27T03:40:47.297Z,68.61
2017-03-27T03:43:06.850Z,69.41
2017-03-27T03:43:32.980Z,69.12
2017-03-27T03:43:59.134Z,68.93
2017-03-27T03:44:25.284Z,68.55
2017-03-27T03:44:51.458Z,68.93
2017-03-27T03:45:17.607Z,68.84
2017-03-27T03:45:43.709Z,69.02
2017-03-27T03:46:09.813Z,68.84
2017-03-27T03:46:35.917Z,68.46
2017-03-27T03:47:02.042Z,68.46
2017-03-27T03:47:28.148Z,68.46
2017-03-27T03:49:17.312Z,68.07
2017-03-27T03:49:43.458Z,68.07
2017-03-27T03:50:09.559Z,68.07
2017-03-27T03:50:35.660Z,67.79
2017-03-27T03:51:01.784Z,67.98
2017-03-27T03:51:27.865Z,67.6
2017-03-27T03:51:53.942Z,67.03
2017-03-27T03:52:20.043Z,67.03
2017-03-27T03:52:46.192Z,66.94
2017-03-27T03:53:12.297Z,67.32
2017-03-27T03:53:38.442Z,67.03
2017-03-27T03:54:04.540Z,67.03
2017-03-27T03:54:30.667Z,66.84
2017-03-27T03:54:56.746Z,66.94
2017-03-27T03:55:22.892Z,67.22
2017-03-27T03:55:49.015Z,67.03
2017-03-27T03:56:15.141Z,66.94
2017-03-27T03:56:41.244Z,67.32
2017-03-27T03:57:07.368Z,67.13
2017-03-27T03:57:33.468Z,67.22
2017-03-27T03:57:59.595Z,67.32
2017-03-27T03:58:25.698Z,67.22
2017-03-27T03:58:51.775Z,67.03
2017-03-27T03:59:17.853Z,67.22
2017-03-27T03:59:43.955Z,67.03
2017-03-27T04:00:10.056Z,66.94
2017-03-27T04:00:36.155Z,67.13
2017-03-27T04:01:02.234Z,67.22
2017-03-27T04:01:28.316Z,67.22
2017-03-27T04:01:54.394Z,67.79
2017-03-27T04:02:20.497Z,67.41
2017-03-27T04:02:46.601Z,67.6
2017-03-27T04:03:12.681Z,67.79
2017-03-27T04:03:38.849Z,67.98
2017-03-27T04:04:04.975Z,67.69
2017-03-27T04:04:31.078Z,67.88
2017-03-27T04:04:57.201Z,67.69
2017-03-27T04:05:23.304Z,67.79
2017-03-27T04:05:49.408Z,68.27
2017-03-27T04:06:15.486Z,67.98
2017-03-27T04:06:41.564Z,67.88
2017-03-27T04:07:07.642Z,68.07
2017-03-27T04:07:33.722Z,67.88
2017-03-27T04:07:59.872Z,67.79
2017-03-27T04:08:26.022Z,67.98
2017-03-27T04:08:52.127Z,68.55
2017-03-27T04:09:18.277Z,68.65
2017-03-27T04:09:44.378Z,68.33
2017-03-27T04:10:10.502Z,68.55
2017-03-27T04:10:36.604Z,68.55
2017-03-27T04:11:02.709Z,68.61
2017-03-27T04:11:28.788Z,68.84
2017-03-27T04:11:54.868Z,68.52
2017-03-27T04:12:20.991Z,68.55
2017-03-27T04:12:47.119Z,68.74
2017-03-27T04:13:13.288Z,68.33
2017-03-27T04:13:39.438Z,68.61
2017-03-27T04:14:05.564Z,68.55
2017-03-27T04:14:31.665Z,69.02
2017-03-27T04:14:57.767Z,68.84
2017-03-27T04:15:23.869Z,68.55
2017-03-27T04:15:49.971Z,68.46
2017-03-27T04:16:16.049Z,68.46
2017-03-27T04:16:42.150Z,68.55
2017-03-27T04:17:08.256Z,68.84
2017-03-27T04:17:34.378Z,67.98
2017-03-27T04:18:00.527Z,68.07
2017-03-27T04:18:26.652Z,67.5
2017-03-27T04:18:52.800Z,66.94
2017-03-27T04:19:18.924Z,67.13
2017-03-27T04:19:45.029Z,67.41
2017-03-27T04:20:11.130Z,67.03
2017-03-27T04:20:37.232Z,67.03
2017-03-27T04:21:03.335Z,67.03
2017-03-27T04:21:29.416Z,67.03
2017-03-27T04:21:55.495Z,67.32
2017-03-27T04:22:21.597Z,67.03
2017-03-27T04:22:47.699Z,66.94
2017-03-27T04:23:13.828Z,67.03
2017-03-27T04:23:39.983Z,66.46
2017-03-27T04:24:06.101Z,66.46
2017-03-27T04:24:32.250Z,66.46
2017-03-27T04:24:58.379Z,65.99
2017-03-27T04:25:24.485Z,65.99
2017-03-27T04:25:50.585Z,65.89
2017-03-27T04:26:16.685Z,66.02
2017-03-27T04:26:42.763Z,65.89
2017-03-27T04:27:08.869Z,65.7
2017-03-27T04:27:35.018Z,65.99
2017-03-27T04:28:01.140Z,65.89
2017-03-27T04:28:27.264Z,65.51
2017-03-27T04:28:53.435Z,65.6
2017-03-27T04:29:19.582Z,65.6
2017-03-27T04:29:45.684Z,65.32
2017-03-27T04:30:11.808Z,65.22
2017-03-27T04:30:37.909Z,65.7
2017-03-27T04:31:04.010Z,65.8
2017-03-27T04:31:30.111Z,65.99
2017-03-27T04:31:56.215Z,66.11
2017-03-27T04:32:22.317Z,65.89
2017-03-27T04:32:48.442Z,66.08
2017-03-27T04:33:14.544Z,65.89
2017-03-27T04:33:40.624Z,65.51
2017-03-27T04:34:06.750Z,65.51
2017-03-27T04:34:32.878Z,65.41
2017-03-27T04:34:58.981Z,65.6
2017-03-27T04:35:25.083Z,65.99
2017-03-27T04:35:51.164Z,65.89
2017-03-27T04:36:17.243Z,65.7
2017-03-27T04:36:43.389Z,66.08
2017-03-27T04:37:09.519Z,66.08
2017-03-27T04:37:35.646Z,65.99
2017-03-27T04:38:01.749Z,65.99
2017-03-27T04:38:27.828Z,65.7
2017-03-27T04:38:53.976Z,65.92
2017-03-27T04:39:20.119Z,65.45
2017-03-27T04:39:46.247Z,65.6
2017-03-27T04:40:12.394Z,65.41
2017-03-27T04:40:38.471Z,65.32
2017-03-27T04:41:04.570Z,65.41
2017-03-27T04:41:30.650Z,65.8
2017-03-27T04:41:56.727Z,65.03
2017-03-27T04:42:22.830Z,65.41
2017-03-27T04:42:48.935Z,65.22
2017-03-27T04:43:15.083Z,65.7
2017-03-27T04:43:41.255Z,66.08
2017-03-27T04:44:07.381Z,65.99
2017-03-27T04:44:33.548Z,66.08
2017-03-27T04:44:59.649Z,65.7
2017-03-27T04:45:25.729Z,65.7
2017-03-27T04:45:51.810Z,66.17
2017-03-27T04:46:17.891Z,66.27
2017-03-27T04:46:44.013Z,66.55
2017-03-27T04:47:10.092Z,66.74
2017-03-27T04:47:36.172Z,66.74
2017-03-27T04:48:02.341Z,66.46
2017-03-27T04:48:28.513Z,66.65
2017-03-27T04:48:54.613Z,67.22
2017-03-27T04:49:20.717Z,67.03
2017-03-27T04:49:46.837Z,67.19
2017-03-27T04:50:12.937Z,67
2017-03-27T04:50:39.062Z,67.19
2017-03-27T04:51:05.164Z,67.13
2017-03-27T04:51:31.268Z,67.03
2017-03-27T04:51:57.367Z,67.22
2017-03-27T04:52:23.472Z,67.69
2017-03-27T04:52:49.621Z,67.5
2017-03-27T04:53:15.771Z,67.32
2017-03-27T04:53:41.853Z,66.94
2017-03-27T04:54:07.999Z,67.03
2017-03-27T04:54:34.127Z,66.17
2017-03-27T04:55:00.228Z,66.74
2017-03-27T04:55:26.309Z,66.46
2017-03-27T04:55:52.390Z,66.65
2017-03-27T04:56:18.469Z,66.46
2017-03-27T04:56:44.568Z,66.55
2017-03-27T04:57:10.668Z,66.65
2017-03-27T04:57:36.794Z,66.46
2017-03-27T04:58:02.876Z,66.74
2017-03-27T04:58:29.018Z,67.41
2017-03-27T04:58:55.145Z,67.41
2017-03-27T04:59:21.247Z,67.13
2017-03-27T04:59:47.395Z,66.55
2017-03-27T05:00:13.496Z,66.46
2017-03-27T05:00:39.618Z,66.46
2017-03-27T05:01:05.699Z,66.55
2017-03-27T05:01:31.802Z,66.36
2017-03-27T05:01:57.882Z,66.55
2017-03-27T05:02:23.985Z,67.41
2017-03-27T05:02:50.132Z,66.46
2017-03-27T05:03:16.260Z,66.65
2017-03-27T05:03:42.386Z,66.55
2017-03-27T05:04:08.489Z,66.55
2017-03-27T05:04:34.612Z,66.52
2017-03-27T05:05:00.692Z,66.74
2017-03-27T05:05:26.795Z,66.55
2017-03-27T05:05:52.874Z,66.74
2017-03-27T05:06:18.952Z,66.42
2017-03-27T05:06:45.055Z,67.09
2017-03-27T05:07:11.138Z,67
2017-03-27T05:07:37.306Z,66.8
2017-03-27T05:08:03.457Z,67
2017-03-27T05:08:29.585Z,67.38
2017-03-27T05:08:55.687Z,67
2017-03-27T05:09:21.833Z,67.32
2017-03-27T05:09:47.933Z,67.22
2017-03-27T05:10:14.057Z,67.03
2017-03-27T05:10:40.137Z,67.03
2017-03-27T05:11:06.259Z,67.13
2017-03-27T05:11:32.360Z,67.22
2017-03-27T05:12:01.497Z,67.5
2017-03-27T05:12:27.601Z,67.22
2017-03-27T05:12:53.703Z,66.55
2017-03-27T05:13:19.849Z,66.84
2017-03-27T05:13:45.951Z,66.46
2017-03-27T05:14:12.075Z,66.61
2017-03-27T05:14:38.198Z,66.52
2017-03-27T05:15:04.318Z,67.38
2017-03-27T05:15:30.423Z,66.8
2017-03-27T05:15:56.526Z,67.13
2017-03-27T05:16:22.604Z,67
2017-03-27T05:16:48.887Z,67.09
2017-03-27T05:17:14.988Z,67.19
2017-03-27T05:17:41.072Z,66.8
2017-03-27T05:18:07.223Z,67.09
2017-03-27T05:18:33.303Z,67
2017-03-27T05:18:59.453Z,67.09
2017-03-27T05:19:25.581Z,67.09
2017-03-27T05:19:51.685Z,67.38
2017-03-27T05:20:17.810Z,66.8
2017-03-27T05:20:43.890Z,66.71
2017-03-27T05:21:09.991Z,67.09
2017-03-27T05:21:36.101Z,67.38
2017-03-27T05:22:02.204Z,67.19
2017-03-27T05:22:28.305Z,67.19
2017-03-27T05:22:54.430Z,67.13
2017-03-27T05:23:20.555Z,67.5
2017-03-27T05:23:46.701Z,67
2017-03-27T05:24:12.829Z,66.94
2017-03-27T05:24:38.909Z,66.55
2017-03-27T05:25:05.011Z,66.42
2017-03-27T05:25:31.090Z,66.36
2017-03-27T05:25:57.172Z,66.55
2017-03-27T05:26:23.343Z,66.17
2017-03-27T05:26:49.424Z,66.55
2017-03-27T05:27:15.572Z,66.55
2017-03-27T05:27:41.673Z,66.65
2017-03-27T05:28:07.823Z,66.55
2017-03-27T05:28:33.926Z,66.65
2017-03-27T05:29:00.055Z,66.55
2017-03-27T05:29:26.182Z,66.55
2017-03-27T05:29:52.285Z,66.55
2017-03-27T05:30:18.412Z,66.55
2017-03-27T05:30:44.513Z,66.46
2017-03-27T05:31:10.593Z,66.55
2017-03-27T05:31:36.721Z,66.65
2017-03-27T05:32:02.824Z,66.17
2017-03-27T05:32:28.903Z,66.08
2017-03-27T05:32:55.031Z,65.89
2017-03-27T05:33:21.134Z,65.99
2017-03-27T05:33:47.304Z,65.89
2017-03-27T05:34:13.386Z,65.51
2017-03-27T05:34:39.488Z,65.13
2017-03-27T05:35:05.591Z,64.84
2017-03-27T05:35:31.673Z,64.46
2017-03-27T05:35:57.752Z,65.03
2017-03-27T05:36:23.854Z,65.51
2017-03-27T05:36:49.977Z,65.41
2017-03-27T05:37:16.079Z,65.7
2017-03-27T05:37:42.158Z,65.8
2017-03-27T05:38:08.306Z,65.89
2017-03-27T05:38:34.453Z,65.99
2017-03-27T05:39:00.603Z,65.99
2017-03-27T05:39:26.731Z,67.22
2017-03-27T05:39:52.876Z,67.22
2017-03-27T05:40:18.997Z,66.55
2017-03-27T05:40:45.102Z,67.13
2017-03-27T05:41:11.206Z,66.94
2017-03-27T05:41:37.310Z,67.88
2017-03-27T05:42:03.437Z,68.84
2017-03-27T05:42:29.538Z,68.27
2017-03-27T05:42:55.686Z,67.22
2017-03-27T05:43:21.835Z,67.22
2017-03-27T05:43:47.960Z,67.13
2017-03-27T05:44:14.134Z,67.13
2017-03-27T05:44:40.263Z,67.13
2017-03-27T05:45:06.388Z,67.32
2017-03-27T05:45:32.466Z,66.94
2017-03-27T05:45:58.566Z,67.03
2017-03-27T05:46:24.669Z,67.5
2017-03-27T05:46:50.750Z,67.98
2017-03-27T05:47:16.850Z,67.22